ABR2032 LSZH-EDHI
Flight info
| Callsign | ABR2032 |
|---|---|
| Flight time | N/A |
| Altitude | 30000 |
| Route | DEGES |
| Aircraft | A306/H-SDE3FGHIRWY/LB1 |
Departure
| Time | N/A |
|---|---|
| Airport | Zürich Airport (LSZH) |
Arrival
| Time | 2026-04-26 12:03 |
|---|---|
| Airport | Hamburg-Finkenwerder Airport (EDHI) |
| Time | Latitude | Longitude | Altitude | Speed | Heading |
|---|---|---|---|---|---|
| 2026-04-26 11:05 | 47.61167 | 9.45404 | 18794 ft | 442 kts | 4° |
| 2026-04-26 11:05 | 47.64241 | 9.45668 | 18974 ft | 443 kts | 2° |
| 2026-04-26 11:05 | 47.67332 | 9.45811 | 19148 ft | 445 kts | 1° |
| 2026-04-26 11:05 | 47.70436 | 9.45912 | 19317 ft | 446 kts | 1° |
| 2026-04-26 11:06 | 47.73541 | 9.46015 | 19476 ft | 447 kts | 1° |
| 2026-04-26 11:06 | 47.76660 | 9.46136 | 19629 ft | 449 kts | 1° |
| 2026-04-26 11:06 | 47.79785 | 9.46271 | 19776 ft | 450 kts | 1° |
| 2026-04-26 11:06 | 47.82917 | 9.46340 | 19913 ft | 451 kts | 0° |
| 2026-04-26 11:07 | 47.86013 | 9.46345 | 20043 ft | 452 kts | 359° |
| 2026-04-26 11:07 | 47.89170 | 9.46322 | 20166 ft | 453 kts | 359° |
| 2026-04-26 11:07 | 47.92319 | 9.46292 | 20287 ft | 454 kts | 359° |
| 2026-04-26 11:07 | 47.95483 | 9.46264 | 20403 ft | 455 kts | 359° |
| 2026-04-26 11:08 | 47.98654 | 9.46243 | 20514 ft | 456 kts | 359° |
| 2026-04-26 11:08 | 48.01830 | 9.46229 | 20622 ft | 457 kts | 359° |
| 2026-04-26 11:08 | 48.05011 | 9.46221 | 20724 ft | 458 kts | 360° |
| 2026-04-26 11:08 | 48.08193 | 9.46216 | 20824 ft | 458 kts | 360° |
| 2026-04-26 11:09 | 48.11394 | 9.46211 | 20918 ft | 459 kts | 360° |
| 2026-04-26 11:09 | 48.14588 | 9.46205 | 21005 ft | 460 kts | 360° |
| 2026-04-26 11:09 | 48.17792 | 9.46199 | 21092 ft | 461 kts | 360° |
| 2026-04-26 11:09 | 48.21003 | 9.46198 | 21174 ft | 461 kts | 360° |
| 2026-04-26 11:10 | 48.24261 | 9.46199 | 21233 ft | 462 kts | 360° |
| 2026-04-26 11:10 | 48.27433 | 9.46203 | 21293 ft | 462 kts | 360° |
| 2026-04-26 11:10 | 48.30655 | 9.46207 | 21354 ft | 463 kts | 360° |
| 2026-04-26 11:10 | 48.33870 | 9.46211 | 21411 ft | 463 kts | 360° |
| 2026-04-26 11:11 | 48.37100 | 9.46214 | 21471 ft | 464 kts | 360° |
| 2026-04-26 11:11 | 48.40330 | 9.46216 | 21528 ft | 464 kts | 360° |
| 2026-04-26 11:11 | 48.43560 | 9.46218 | 21581 ft | 465 kts | 360° |
| 2026-04-26 11:11 | 48.46793 | 9.46220 | 21635 ft | 465 kts | 360° |
| 2026-04-26 11:12 | 48.49997 | 9.46223 | 21687 ft | 466 kts | 360° |
| 2026-04-26 11:12 | 48.53236 | 9.46224 | 21737 ft | 466 kts | 360° |
| 2026-04-26 11:12 | 48.56485 | 9.46206 | 21785 ft | 466 kts | 359° |
| 2026-04-26 11:12 | 48.59729 | 9.46171 | 21833 ft | 467 kts | 359° |
| 2026-04-26 11:13 | 48.62986 | 9.46129 | 21877 ft | 467 kts | 359° |
| 2026-04-26 11:13 | 48.66230 | 9.46087 | 21920 ft | 468 kts | 359° |
| 2026-04-26 11:13 | 48.69496 | 9.46045 | 21959 ft | 468 kts | 359° |
| 2026-04-26 11:13 | 48.72755 | 9.46000 | 22000 ft | 468 kts | 359° |
| 2026-04-26 11:14 | 48.76017 | 9.45895 | 22039 ft | 468 kts | 358° |
| 2026-04-26 11:14 | 48.79268 | 9.45742 | 22261 ft | 465 kts | 358° |
| 2026-04-26 11:14 | 48.82484 | 9.45567 | 22529 ft | 460 kts | 358° |
| 2026-04-26 11:14 | 48.85670 | 9.45387 | 22796 ft | 456 kts | 358° |
| 2026-04-26 11:15 | 48.88844 | 9.45211 | 22895 ft | 457 kts | 358° |
| 2026-04-26 11:15 | 48.92025 | 9.45039 | 22935 ft | 458 kts | 358° |
| 2026-04-26 11:15 | 48.95217 | 9.44872 | 22973 ft | 460 kts | 358° |
| 2026-04-26 11:15 | 48.98425 | 9.44708 | 23004 ft | 461 kts | 358° |
| 2026-04-26 11:16 | 49.01639 | 9.44545 | 23039 ft | 463 kts | 358° |
| 2026-04-26 11:16 | 49.04821 | 9.44383 | 23067 ft | 464 kts | 358° |
| 2026-04-26 11:16 | 49.08094 | 9.44217 | 23094 ft | 465 kts | 358° |
| 2026-04-26 11:16 | 49.11326 | 9.44053 | 23119 ft | 466 kts | 358° |
| 2026-04-26 11:17 | 49.14569 | 9.43888 | 23141 ft | 467 kts | 358° |
| 2026-04-26 11:17 | 49.17781 | 9.43724 | 23163 ft | 468 kts | 358° |
| 2026-04-26 11:17 | 49.21046 | 9.43558 | 23184 ft | 468 kts | 358° |
| 2026-04-26 11:17 | 49.24305 | 9.43390 | 23205 ft | 469 kts | 358° |
| 2026-04-26 11:18 | 49.27577 | 9.43223 | 23227 ft | 470 kts | 358° |
| 2026-04-26 11:18 | 49.30845 | 9.43056 | 23240 ft | 471 kts | 358° |
| 2026-04-26 11:18 | 49.34122 | 9.42885 | 23260 ft | 471 kts | 358° |
| 2026-04-26 11:18 | 49.37397 | 9.42716 | 23276 ft | 472 kts | 358° |
| 2026-04-26 11:19 | 49.40684 | 9.42546 | 23292 ft | 472 kts | 358° |
| 2026-04-26 11:19 | 49.43973 | 9.42377 | 23305 ft | 473 kts | 358° |
| 2026-04-26 11:19 | 49.47273 | 9.42206 | 23199 ft | 476 kts | 358° |
| 2026-04-26 11:19 | 49.50548 | 9.42036 | 23151 ft | 477 kts | 358° |
| 2026-04-26 11:20 | 49.53918 | 9.41861 | 23141 ft | 478 kts | 358° |
| 2026-04-26 11:20 | 49.56118 | 9.41746 | 23140 ft | 478 kts | 358° |
| 2026-04-26 11:20 | 49.60562 | 9.41569 | 23205 ft | 477 kts | 0° |
| 2026-04-26 11:20 | 49.63824 | 9.41852 | 23330 ft | 474 kts | 4° |
| 2026-04-26 11:21 | 49.67107 | 9.42269 | 23450 ft | 472 kts | 5° |
| 2026-04-26 11:21 | 49.70369 | 9.42751 | 23572 ft | 470 kts | 5° |
| 2026-04-26 11:21 | 49.73618 | 9.43269 | 23694 ft | 469 kts | 6° |
| 2026-04-26 11:21 | 49.76860 | 9.43801 | 23816 ft | 467 kts | 6° |
| 2026-04-26 11:22 | 49.80086 | 9.44334 | 23939 ft | 466 kts | 6° |
| 2026-04-26 11:22 | 49.83305 | 9.44861 | 24061 ft | 464 kts | 6° |
| 2026-04-26 11:22 | 49.86516 | 9.45384 | 24185 ft | 463 kts | 6° |
| 2026-04-26 11:22 | 49.89715 | 9.45900 | 24308 ft | 462 kts | 6° |
| 2026-04-26 11:23 | 49.92914 | 9.46416 | 24431 ft | 461 kts | 6° |
| 2026-04-26 11:23 | 49.96105 | 9.46930 | 24554 ft | 460 kts | 6° |
| 2026-04-26 11:23 | 49.99228 | 9.47434 | 24682 ft | 461 kts | 6° |
| 2026-04-26 11:23 | 50.02425 | 9.47951 | 24812 ft | 461 kts | 6° |
| 2026-04-26 11:24 | 50.05611 | 9.48466 | 24932 ft | 459 kts | 6° |
| 2026-04-26 11:24 | 50.08782 | 9.48994 | 25058 ft | 458 kts | 6° |
| 2026-04-26 11:24 | 50.11846 | 9.49525 | 25185 ft | 453 kts | 6° |
| 2026-04-26 11:24 | 50.15005 | 9.50084 | 25319 ft | 458 kts | 6° |
| 2026-04-26 11:25 | 50.18185 | 9.50650 | 25447 ft | 461 kts | 6° |
| 2026-04-26 11:25 | 50.21366 | 9.51218 | 25570 ft | 461 kts | 6° |
| 2026-04-26 11:25 | 50.24552 | 9.51785 | 25692 ft | 460 kts | 6° |
| 2026-04-26 11:25 | 50.27727 | 9.52349 | 25819 ft | 459 kts | 6° |
| 2026-04-26 11:26 | 50.30901 | 9.52913 | 25941 ft | 459 kts | 6° |
| 2026-04-26 11:26 | 50.34075 | 9.53476 | 26069 ft | 459 kts | 6° |
| 2026-04-26 11:26 | 50.37223 | 9.54035 | 26193 ft | 463 kts | 6° |
| 2026-04-26 11:26 | 50.40437 | 9.54607 | 26395 ft | 466 kts | 6° |
| 2026-04-26 11:27 | 50.43667 | 9.55182 | 26658 ft | 469 kts | 6° |
| 2026-04-26 11:27 | 50.46919 | 9.55762 | 26919 ft | 471 kts | 6° |
| 2026-04-26 11:27 | 50.50180 | 9.56345 | 27164 ft | 473 kts | 6° |
| 2026-04-26 11:27 | 50.53456 | 9.56931 | 27407 ft | 475 kts | 6° |
| 2026-04-26 11:28 | 50.56746 | 9.57521 | 27653 ft | 476 kts | 6° |
| 2026-04-26 11:28 | 50.60045 | 9.58113 | 27889 ft | 478 kts | 6° |
| 2026-04-26 11:28 | 50.63348 | 9.58706 | 28188 ft | 478 kts | 6° |
| 2026-04-26 11:28 | 50.66651 | 9.59301 | 28542 ft | 476 kts | 6° |
| 2026-04-26 11:29 | 50.69930 | 9.59892 | 28873 ft | 475 kts | 6° |
| 2026-04-26 11:29 | 50.73219 | 9.60485 | 29189 ft | 474 kts | 6° |
| 2026-04-26 11:29 | 50.76493 | 9.61077 | 29496 ft | 474 kts | 6° |
| 2026-04-26 11:29 | 50.79771 | 9.61671 | 29790 ft | 474 kts | 6° |
| 2026-04-26 11:30 | 50.83046 | 9.62264 | 29982 ft | 474 kts | 6° |
| 2026-04-26 11:30 | 50.85224 | 9.62659 | 30009 ft | 474 kts | 6° |
| 2026-04-26 11:30 | 50.92884 | 9.64052 | 30020 ft | 474 kts | 6° |
| 2026-04-26 11:31 | 50.99446 | 9.65250 | 30014 ft | 474 kts | 6° |
| 2026-04-26 11:31 | 51.05997 | 9.66449 | 30002 ft | 474 kts | 6° |
| 2026-04-26 11:32 | 51.12554 | 9.67654 | 30013 ft | 474 kts | 6° |
| 2026-04-26 11:32 | 51.19066 | 9.68851 | 30016 ft | 474 kts | 6° |
| 2026-04-26 11:33 | 51.25636 | 9.69978 | 30416 ft | 474 kts | 5° |
| 2026-04-26 11:33 | 51.28912 | 9.70504 | 30754 ft | 473 kts | 5° |
| 2026-04-26 11:33 | 51.32182 | 9.71024 | 31069 ft | 472 kts | 5° |
| 2026-04-26 11:34 | 51.35448 | 9.71544 | 31343 ft | 471 kts | 5° |
| 2026-04-26 11:34 | 51.38718 | 9.72068 | 31624 ft | 471 kts | 5° |
| 2026-04-26 11:34 | 51.41975 | 9.72594 | 31908 ft | 470 kts | 5° |
| 2026-04-26 11:34 | 51.45224 | 9.73122 | 31997 ft | 466 kts | 5° |
| 2026-04-26 11:35 | 51.48401 | 9.73659 | 31998 ft | 453 kts | 6° |
| 2026-04-26 11:35 | 51.50458 | 9.74031 | 31990 ft | 447 kts | 6° |
| 2026-04-26 11:35 | 51.56493 | 9.75175 | 31999 ft | 444 kts | 6° |
| 2026-04-26 11:36 | 51.63661 | 9.76552 | 31998 ft | 444 kts | 6° |
| 2026-04-26 11:36 | 51.69790 | 9.77723 | 31998 ft | 443 kts | 6° |
| 2026-04-26 11:37 | 51.74874 | 9.78691 | 31998 ft | 442 kts | 6° |
| 2026-04-26 11:37 | 51.80980 | 9.79855 | 31999 ft | 441 kts | 6° |
| 2026-04-26 11:38 | 51.88058 | 9.81210 | 31999 ft | 440 kts | 6° |
| 2026-04-26 11:38 | 51.93150 | 9.82193 | 31999 ft | 440 kts | 6° |
| 2026-04-26 11:39 | 51.99222 | 9.83371 | 31998 ft | 439 kts | 6° |
| 2026-04-26 11:39 | 52.05292 | 9.84552 | 31923 ft | 441 kts | 6° |
| 2026-04-26 11:40 | 52.08360 | 9.85150 | 31682 ft | 446 kts | 6° |
| 2026-04-26 11:40 | 52.11552 | 9.85772 | 31433 ft | 452 kts | 6° |
| 2026-04-26 11:40 | 52.14557 | 9.86359 | 31200 ft | 456 kts | 6° |
| 2026-04-26 11:40 | 52.17724 | 9.86979 | 30958 ft | 461 kts | 6° |
| 2026-04-26 11:41 | 52.20928 | 9.87608 | 30714 ft | 465 kts | 6° |
| 2026-04-26 11:42 | 52.43066 | 9.96309 | 27603 ft | 463 kts | 15° |
| 2026-04-26 11:43 | 52.46143 | 9.97676 | 26797 ft | 452 kts | 15° |
| 2026-04-26 11:43 | 52.49139 | 9.99008 | 25995 ft | 443 kts | 15° |
| 2026-04-26 11:43 | 52.52087 | 10.00318 | 25261 ft | 434 kts | 15° |
| 2026-04-26 11:43 | 52.54991 | 10.01609 | 24884 ft | 432 kts | 15° |
| 2026-04-26 11:44 | 52.57898 | 10.02904 | 24558 ft | 432 kts | 15° |
| 2026-04-26 11:44 | 52.60800 | 10.04199 | 24108 ft | 431 kts | 15° |
| 2026-04-26 11:44 | 52.63687 | 10.05489 | 23471 ft | 429 kts | 15° |
| 2026-04-26 11:44 | 52.66559 | 10.06775 | 22774 ft | 427 kts | 15° |
| 2026-04-26 11:45 | 52.69416 | 10.08055 | 22078 ft | 425 kts | 15° |
| 2026-04-26 11:45 | 52.72266 | 10.09334 | 21396 ft | 423 kts | 15° |
| 2026-04-26 11:45 | 52.75075 | 10.10596 | 20773 ft | 410 kts | 15° |
| 2026-04-26 11:45 | 52.77829 | 10.11465 | 20276 ft | 400 kts | 5° |
| 2026-04-26 11:46 | 52.80591 | 10.11825 | 19847 ft | 396 kts | 3° |
| 2026-04-26 11:46 | 52.83300 | 10.12044 | 19459 ft | 394 kts | 2° |
| 2026-04-26 11:46 | 52.86065 | 10.12170 | 18791 ft | 392 kts | 1° |
| 2026-04-26 11:46 | 52.88774 | 10.12243 | 18149 ft | 386 kts | 0° |
| 2026-04-26 11:47 | 52.91443 | 10.12299 | 17644 ft | 381 kts | 0° |
| 2026-04-26 11:47 | 52.94047 | 10.12356 | 17117 ft | 378 kts | 0° |
| 2026-04-26 11:47 | 52.96668 | 10.12421 | 16597 ft | 375 kts | 0° |
| 2026-04-26 11:47 | 52.99269 | 10.12495 | 16095 ft | 372 kts | 1° |
| 2026-04-26 11:48 | 53.01846 | 10.12576 | 15594 ft | 368 kts | 1° |
| 2026-04-26 11:48 | 53.04399 | 10.12660 | 15095 ft | 365 kts | 1° |
| 2026-04-26 11:48 | 53.06927 | 10.12742 | 14593 ft | 362 kts | 1° |
| 2026-04-26 11:48 | 53.09435 | 10.12823 | 14093 ft | 359 kts | 1° |
| 2026-04-26 11:49 | 53.11918 | 10.12907 | 13592 ft | 356 kts | 1° |
| 2026-04-26 11:49 | 53.14385 | 10.12993 | 13090 ft | 352 kts | 1° |
| 2026-04-26 11:49 | 53.16824 | 10.13076 | 12590 ft | 349 kts | 1° |
| 2026-04-26 11:49 | 53.19246 | 10.13157 | 12089 ft | 346 kts | 1° |
| 2026-04-26 11:50 | 53.21641 | 10.13236 | 11595 ft | 343 kts | 1° |
| 2026-04-26 11:50 | 53.24020 | 10.13315 | 11141 ft | 340 kts | 1° |
| 2026-04-26 11:50 | 53.26377 | 10.13394 | 10692 ft | 338 kts | 1° |
| 2026-04-26 11:50 | 53.28720 | 10.13475 | 10242 ft | 335 kts | 1° |
| 2026-04-26 11:51 | 53.31042 | 10.13556 | 9789 ft | 332 kts | 1° |
| 2026-04-26 11:51 | 53.33345 | 10.13634 | 9339 ft | 330 kts | 1° |
| 2026-04-26 11:51 | 53.35628 | 10.13711 | 8888 ft | 327 kts | 1° |
| 2026-04-26 11:51 | 53.37870 | 10.13783 | 8444 ft | 325 kts | 1° |
| 2026-04-26 11:52 | 53.40106 | 10.14043 | 7994 ft | 322 kts | 6° |
| 2026-04-26 11:52 | 53.42332 | 10.14498 | 7541 ft | 320 kts | 7° |
| 2026-04-26 11:52 | 53.44507 | 10.14976 | 7211 ft | 308 kts | 7° |
| 2026-04-26 11:52 | 53.46588 | 10.15440 | 6941 ft | 294 kts | 7° |
| 2026-04-26 11:53 | 53.48549 | 10.15883 | 6651 ft | 276 kts | 7° |
| 2026-04-26 11:53 | 53.50398 | 10.16181 | 6356 ft | 261 kts | 355° |
| 2026-04-26 11:53 | 53.52154 | 10.15500 | 6096 ft | 260 kts | 344° |
| 2026-04-26 11:54 | 53.55609 | 10.16439 | 5539 ft | 260 kts | 34° |
| 2026-04-26 11:54 | 53.57170 | 10.17972 | 5260 ft | 260 kts | 20° |
| 2026-04-26 11:54 | 53.58917 | 10.18714 | 4991 ft | 259 kts | 8° |
| 2026-04-26 11:54 | 53.60705 | 10.19004 | 4722 ft | 258 kts | 1° |
| 2026-04-26 11:55 | 53.62498 | 10.18909 | 4446 ft | 257 kts | 355° |
| 2026-04-26 11:55 | 53.64279 | 10.18738 | 4165 ft | 256 kts | 1° |
| 2026-04-26 11:55 | 53.66053 | 10.19075 | 3910 ft | 257 kts | 9° |
| 2026-04-26 11:55 | 53.67799 | 10.19636 | 3622 ft | 252 kts | 9° |
| 2026-04-26 11:56 | 53.69500 | 10.19561 | 3317 ft | 242 kts | 341° |
| 2026-04-26 11:56 | 53.70824 | 10.18002 | 3059 ft | 230 kts | 301° |
| 2026-04-26 11:56 | 53.71190 | 10.15531 | 3037 ft | 217 kts | 261° |
| 2026-04-26 11:56 | 53.70497 | 10.13334 | 3016 ft | 217 kts | 219° |
| 2026-04-26 11:57 | 53.69191 | 10.12040 | 3023 ft | 220 kts | 208° |
| 2026-04-26 11:57 | 53.67864 | 10.10884 | 2992 ft | 207 kts | 207° |
| 2026-04-26 11:57 | 53.66640 | 10.09813 | 2983 ft | 190 kts | 210° |
| 2026-04-26 11:57 | 53.65577 | 10.08623 | 2993 ft | 180 kts | 219° |
| 2026-04-26 11:58 | 53.64681 | 10.07158 | 3008 ft | 179 kts | 229° |
| 2026-04-26 11:58 | 53.63912 | 10.05603 | 3023 ft | 168 kts | 231° |
| 2026-04-26 11:58 | 53.63185 | 10.04078 | 2956 ft | 167 kts | 231° |
| 2026-04-26 11:58 | 53.62464 | 10.02551 | 2741 ft | 167 kts | 231° |
| 2026-04-26 11:59 | 53.61751 | 10.01028 | 2500 ft | 165 kts | 231° |
| 2026-04-26 11:59 | 53.61046 | 9.99527 | 2266 ft | 160 kts | 231° |
| 2026-04-26 11:59 | 53.60374 | 9.98099 | 2057 ft | 156 kts | 231° |
| 2026-04-26 11:59 | 53.59705 | 9.96673 | 1857 ft | 154 kts | 231° |
| 2026-04-26 12:00 | 53.59043 | 9.95263 | 1657 ft | 153 kts | 231° |
| 2026-04-26 12:00 | 53.58391 | 9.93863 | 1538 ft | 151 kts | 232° |
| 2026-04-26 12:00 | 53.57744 | 9.92471 | 1286 ft | 150 kts | 230° |
| 2026-04-26 12:00 | 53.57111 | 9.91140 | 1007 ft | 140 kts | 231° |
| 2026-04-26 12:01 | 53.56531 | 9.89867 | 824 ft | 137 kts | 231° |
| 2026-04-26 12:01 | 53.55942 | 9.88592 | 674 ft | 138 kts | 229° |
| 2026-04-26 12:01 | 53.55332 | 9.87338 | 501 ft | 139 kts | 229° |
| 2026-04-26 12:01 | 53.54734 | 9.86086 | 277 ft | 133 kts | 230° |
| 2026-04-26 12:02 | 53.54158 | 9.84884 | 119 ft | 132 kts | 230° |
| 2026-04-26 12:02 | 53.53603 | 9.83703 | 30 ft | 125 kts | 230° |
| 2026-04-26 12:02 | 53.53121 | 9.82686 | 25 ft | 99 kts | 231° |
| 2026-04-26 12:02 | 53.52801 | 9.82016 | 25 ft | 53 kts | 232° |
| 2026-04-26 12:03 | 53.52604 | 9.81584 | 23 ft | 28 kts | 237° |
| 2026-04-26 12:03 | 53.52541 | 9.81390 | 24 ft | 8 kts | 182° |
| 2026-04-26 12:03 | 53.52534 | 9.81425 | 24 ft | 2 kts | 81° |
| 2026-04-26 12:03 | 53.52536 | 9.81431 | 24 ft | 0 kts | 71° |
| 2026-04-26 12:04 | 53.52536 | 9.81432 | 24 ft | 0 kts | 71° |
| 2026-04-26 12:06 | 53.52536 | 9.81433 | 24 ft | 0 kts | 70° |
| 2026-04-26 12:06 | 53.52548 | 9.81465 | 24 ft | 11 kts | 57° |
| 2026-04-26 12:07 | 53.52642 | 9.81668 | 22 ft | 29 kts | 52° |
| 2026-04-26 12:07 | 53.52787 | 9.81975 | 24 ft | 38 kts | 50° |
| 2026-04-26 12:07 | 53.52965 | 9.82345 | 26 ft | 44 kts | 54° |
| 2026-04-26 12:07 | 53.53163 | 9.82772 | 25 ft | 46 kts | 52° |
| 2026-04-26 12:08 | 53.53333 | 9.83051 | 27 ft | 19 kts | 4° |
| 2026-04-26 12:08 | 53.53436 | 9.82962 | 28 ft | 19 kts | 321° |
| 2026-04-26 12:08 | 53.53554 | 9.82802 | 28 ft | 25 kts | 321° |
| 2026-04-26 12:08 | 53.53660 | 9.82628 | 28 ft | 11 kts | 298° |
| 2026-04-26 12:09 | 53.53678 | 9.82568 | 28 ft | 4 kts | 296° |
| 2026-04-26 12:09 | 53.53689 | 9.82530 | 28 ft | 3 kts | 296° |
| 2026-04-26 12:09 | 53.53699 | 9.82488 | 27 ft | 7 kts | 288° |
| 2026-04-26 12:09 | 53.53729 | 9.82449 | 27 ft | 4 kts | 347° |
| 2026-04-26 12:10 | 53.53749 | 9.82457 | 28 ft | 3 kts | 15° |
| 2026-04-26 12:10 | 53.53763 | 9.82464 | 28 ft | 2 kts | 15° |
| 2026-04-26 12:10 | 53.53780 | 9.82471 | 28 ft | 4 kts | 14° |